Time;durP1;ratioP1;P1;durP2;ratioP2;P2;SDS_P1;SDS_P2;PMS_P1;PMS_P2;Temp;Humidity;BMP_temperature;BMP_pressure;BME280_temperature;BME280_humidity;BME280_pressure;Samples;Min_cycle;Max_cycle;Signal;HPM_P1;HPM_P2
2023/04/12 00:01:58;;;;;;;;;;;;;;;29.45;59.08;100882.63;5080874;27;66012;-41
2023/04/12 00:04:28;;;;;;;;;;;;;;;29.50;59.77;100891.75;5080095;27;70660;-41
2023/04/12 00:06:59;;;;;;;;;;;;;;;29.55;59.87;100888.44;5080697;28;65517;-42
2023/04/12 00:09:30;;;;;;;;;;;;;;;29.60;61.48;100896.75;5079089;27;69760;-42
2023/04/12 00:12:00;;;;;;;;;;;;;;;29.64;62.16;100895.28;5081641;28;67138;-42
2023/04/12 00:14:30;;;;;;;;;;;;;;;29.68;62.47;100904.66;5081057;28;71039;-42
2023/04/12 00:17:00;;;;;;;;;;;;;;;29.79;70.04;100911.28;5062076;28;66772;-41
2023/04/12 00:19:31;;;;;;;;;;;;;;;29.89;71.02;100908.13;5078438;27;69294;-42
2023/04/12 00:22:01;;;;;;;;;;;;;;;29.92;71.06;100915.81;5080134;27;65709;-40
2023/04/12 00:24:31;;;;;;;;;;;;;;;29.94;70.99;100913.72;5080200;28;69072;-41
2023/04/12 00:27:30;;;;;;;;;;;;;;;29.95;70.87;100909.97;5080835;27;67035;-42
2023/04/12 00:30:00;;;;;;;;;;;;;;;29.99;71.03;100906.63;5074213;27;69615;-42
2023/04/12 00:32:30;;;;;;;;;;;;;;;29.99;70.93;100916.63;5080289;27;67221;-42
2023/04/12 00:35:01;;;;;;;;;;;;;;;29.59;71.02;100857.25;5061401;28;70280;-41
2023/04/12 00:37:31;;;;;;;;;;;;;;;30.03;70.39;100929.53;5078490;27;65408;-40
2023/04/12 00:40:01;;;;;;;;;;;;;;;30.06;71.00;100939.06;5064366;28;69368;-40
2023/04/12 00:42:32;;;;;;;;;;;;;;;30.09;70.50;100943.22;5077373;27;66840;-41
2023/04/12 00:45:02;;;;;;;;;;;;;;;30.12;70.72;100943.66;5064135;27;69820;-40
2023/04/12 00:47:35;;;;;;;;;;;;;;;30.15;70.42;100947.78;5079504;27;66174;-41
2023/04/12 00:50:07;;;;;;;;;;;;;;;30.14;70.44;100946.94;5076756;27;70016;-41
2023/04/12 00:52:38;;;;;;;;;;;;;;;30.18;70.99;100948.19;5079616;27;66719;-40
2023/04/12 00:55:09;;;;;;;;;;;;;;;30.18;70.96;100959.00;5077071;27;70223;-41
2023/04/12 00:57:39;;;;;;;;;;;;;;;30.15;67.79;100948.63;5062454;28;66662;-39
2023/04/12 01:00:11;;;;;;;;;;;;;;;30.17;66.83;100956.50;5076675;27;69876;-39
2023/04/12 01:02:46;;;;;;;;;;;;;;;30.19;66.11;100966.06;5076418;27;66747;-38
2023/04/12 01:05:21;;;;;;;;;;;;;;;30.23;65.79;100967.34;5059748;28;70490;-39
2023/04/12 01:08:14;;;;;;;;;;;;;;;30.25;65.20;100965.25;5080102;27;65651;-37
2023/04/12 01:11:03;;;;;;;;;;;;;;;30.26;64.83;100964.22;5080470;27;69675;-39
2023/04/12 01:13:44;;;;;;;;;;;;;;;30.31;64.84;100965.44;5085278;27;65648;-38
2023/04/12 01:16:23;;;;;;;;;;;;;;;30.32;64.66;100969.81;5079277;27;70109;-38
2023/04/12 01:18:58;;;;;;;;;;;;;;;30.35;64.41;100980.22;5094594;27;66596;-39
2023/04/12 01:21:35;;;;;;;;;;;;;;;30.37;64.26;100975.41;5063183;28;69381;-38
2023/04/12 01:24:20;;;;;;;;;;;;;;;30.40;63.87;100978.53;5079765;28;66847;-39
2023/04/12 01:26:51;;;;;;;;;;;;;;;30.42;64.04;100970.19;5066281;27;70061;-40
2023/04/12 01:29:27;;;;;;;;;;;;;;;30.43;63.53;100978.09;5062929;28;66929;-39
2023/04/12 01:32:00;;;;;;;;;;;;;;;30.44;63.49;100970.81;5077860;27;70379;-39
2023/04/12 01:34:31;;;;;;;;;;;;;;;30.47;63.59;100973.06;5075410;27;66961;-38
2023/04/12 01:37:02;;;;;;;;;;;;;;;30.48;63.30;100981.00;5093669;27;70813;-38
2023/04/12 01:39:33;;;;;;;;;;;;;;;30.50;63.11;100978.88;5076468;27;67149;-38
2023/04/12 01:42:03;;;;;;;;;;;;;;;30.53;63.29;100977.63;5081107;27;68843;-39
2023/04/12 01:44:34;;;;;;;;;;;;;;;30.54;62.79;100978.47;5078209;27;65264;-38
2023/04/12 01:47:04;;;;;;;;;;;;;;;30.56;62.32;100976.34;5073525;27;69910;-38
2023/04/12 01:49:38;;;;;;;;;;;;;;;30.58;62.33;100985.09;5078894;27;66408;-39
2023/04/12 01:52:12;;;;;;;;;;;;;;;30.59;62.71;100984.03;5076787;27;70898;-38
2023/04/12 01:54:43;;;;;;;;;;;;;;;30.60;62.61;100983.84;5075550;28;66523;-39
2023/04/12 01:57:14;;;;;;;;;;;;;;;30.61;62.45;100985.50;5052537;28;69347;-39
2023/04/12 01:59:47;;;;;;;;;;;;;;;30.63;62.41;100988.81;5042213;28;66796;-38
2023/04/12 02:02:17;;;;;;;;;;;;;;;30.66;62.50;100985.69;5076707;27;69241;-39
2023/04/12 02:04:48;;;;;;;;;;;;;;;30.66;61.94;100982.97;5079170;27;66305;-38
2023/04/12 02:07:21;;;;;;;;;;;;;;;30.69;61.72;100984.41;5082231;27;70339;-39
2023/04/12 02:09:52;;;;;;;;;;;;;;;30.71;61.76;100991.28;5062768;28;67131;-39
2023/04/12 02:12:22;;;;;;;;;;;;;;;30.72;62.25;100982.09;5080268;27;70216;-38
2023/04/12 02:14:52;;;;;;;;;;;;;;;30.73;61.83;100983.78;5079673;27;64484;-38
2023/04/12 02:17:23;;;;;;;;;;;;;;;30.76;61.89;100979.81;5080013;27;70636;-38
2023/04/12 02:19:54;;;;;;;;;;;;;;;30.78;62.24;100979.56;5079702;27;66846;-39
2023/04/12 02:22:24;;;;;;;;;;;;;;;30.80;62.27;100983.75;5078762;27;70005;-39
2023/04/12 02:24:54;;;;;;;;;;;;;;;30.81;61.99;100974.56;5079583;27;66823;-40
2023/04/12 02:27:25;;;;;;;;;;;;;;;30.84;61.76;100979.59;5077100;27;68854;-39
2023/04/12 02:29:57;;;;;;;;;;;;;;;30.85;61.97;100981.25;5061565;27;66614;-39
2023/04/12 02:32:29;;;;;;;;;;;;;;;30.88;61.76;100979.97;5067454;28;69940;-39
2023/04/12 02:35:01;;;;;;;;;;;;;;;30.90;61.93;100980.59;5092316;27;66434;-39
2023/04/12 02:37:32;;;;;;;;;;;;;;;30.92;61.48;100981.19;5078208;27;69197;-39
2023/04/12 02:40:08;;;;;;;;;;;;;;;30.94;61.85;100981.81;5079077;27;67037;-38
2023/04/12 02:42:40;;;;;;;;;;;;;;;30.96;62.09;100981.59;5067163;27;69855;-38
2023/04/12 02:45:12;;;;;;;;;;;;;;;30.98;61.66;100980.34;5061743;28;65667;-38
2023/04/12 02:47:43;;;;;;;;;;;;;;;31.01;61.72;100973.63;5091599;27;69770;-37
2023/04/12 02:50:13;;;;;;;;;;;;;;;31.02;61.63;100965.28;5075341;27;66646;-38
2023/04/12 02:52:50;;;;;;;;;;;;;;;31.05;61.69;100970.25;5074404;27;70337;-39
2023/04/12 02:55:21;;;;;;;;;;;;;;;31.07;61.66;100973.59;5053529;28;66813;-38
2023/04/12 02:57:52;;;;;;;;;;;;;;;31.08;61.96;100961.69;5091373;27;69695;-39
2023/04/12 03:00:23;;;;;;;;;;;;;;;31.11;61.58;100963.13;5076713;27;65893;-38
2023/04/12 03:03:01;;;;;;;;;;;;;;;31.12;61.73;100965.63;5072631;27;69655;-40
2023/04/12 03:05:32;;;;;;;;;;;;;;;31.15;61.67;100965.19;5073775;27;66798;-39
2023/04/12 03:08:03;;;;;;;;;;;;;;;31.18;61.89;100963.94;5088748;27;70082;-40
2023/04/12 03:10:41;;;;;;;;;;;;;;;31.20;61.86;100960.97;5048866;28;66388;-39
2023/04/12 03:13:12;;;;;;;;;;;;;;;31.23;61.25;100957.81;5073568;27;68553;-38
2023/04/12 03:15:48;;;;;;;;;;;;;;;31.24;61.26;100957.63;5057331;27;66594;-38
2023/04/12 03:18:19;;;;;;;;;;;;;;;31.27;61.23;100951.75;5091303;27;70227;-39
2023/04/12 03:20:52;;;;;;;;;;;;;;;31.29;61.16;100944.25;5071514;27;65940;-39
2023/04/12 03:23:22;;;;;;;;;;;;;;;31.32;61.47;100942.97;5056452;28;69803;-38
2023/04/12 03:26:05;;;;;;;;;;;;;;;31.33;61.36;100937.31;5057156;28;67097;-38
2023/04/12 03:28:35;;;;;;;;;;;;;;;31.37;61.06;100935.00;5049932;28;69325;-39
2023/04/12 03:31:07;;;;;;;;;;;;;;;31.38;60.97;100932.09;5090949;27;65137;-39
2023/04/12 03:33:42;;;;;;;;;;;;;;;31.42;60.68;100934.34;5053270;28;70381;-38
2023/04/12 03:36:28;;;;;;;;;;;;;;;31.44;60.32;100941.22;5089572;27;66988;-38
2023/04/12 03:39:06;;;;;;;;;;;;;;;31.47;60.44;100924.50;5056118;28;70166;-38
2023/04/12 03:41:38;;;;;;;;;;;;;;;31.50;60.61;100924.03;5059665;28;66548;-37
2023/04/12 03:44:09;;;;;;;;;;;;;;;31.52;60.28;100927.38;5072328;27;69075;-40
2023/04/12 03:46:39;;;;;;;;;;;;;;;31.56;60.33;100925.03;5089547;27;66313;-39
2023/04/12 03:49:11;;;;;;;;;;;;;;;31.57;60.45;100919.41;5089397;27;70642;-40
2023/04/12 03:51:42;;;;;;;;;;;;;;;31.60;60.23;100908.09;5089067;27;65898;-38
2023/04/12 03:54:12;;;;;;;;;;;;;;;31.63;60.21;100906.00;5054986;28;69844;-40
2023/04/12 03:57:12;;;;;;;;;;;;;;;31.65;60.09;100904.72;5073544;28;66893;-40
2023/04/12 03:59:47;;;;;;;;;;;;;;;31.68;60.08;100892.56;5082526;27;70809;-39
2023/04/12 04:02:22;;;;;;;;;;;;;;;31.70;59.99;100891.28;5054070;27;66621;-39
2023/04/12 04:04:55;;;;;;;;;;;;;;;31.74;60.16;100894.41;5060591;28;70710;-39
2023/04/12 04:07:27;;;;;;;;;;;;;;;31.75;60.09;100883.31;5060986;27;66959;-39
2023/04/12 04:09:57;;;;;;;;;;;;;;;31.78;60.00;100882.03;5090439;27;69270;-38
2023/04/12 04:12:36;;;;;;;;;;;;;;;31.78;59.81;100882.84;5041041;27;66357;-39
2023/04/12 04:15:19;;;;;;;;;;;;;;;31.81;59.81;100876.16;5075825;27;69559;-39
2023/04/12 04:17:49;;;;;;;;;;;;;;;31.82;59.71;100869.69;5060393;28;66350;-38
2023/04/12 04:20:20;;;;;;;;;;;;;;;31.83;59.96;100864.03;5077345;27;70274;-39
2023/04/12 04:22:58;;;;;;;;;;;;;;;31.86;59.58;100862.75;5077412;27;67360;-39
2023/04/12 04:25:41;;;;;;;;;;;;;;;31.88;59.50;100857.94;5055949;27;70524;-40
2023/04/12 04:28:17;;;;;;;;;;;;;;;31.90;59.55;100847.69;5074890;28;66583;-39
2023/04/12 04:30:47;;;;;;;;;;;;;;;31.91;59.23;100843.09;5060458;28;70653;-39
2023/04/12 04:33:19;;;;;;;;;;;;;;;31.93;58.80;100838.25;5060229;27;66738;-40
2023/04/12 04:35:55;;;;;;;;;;;;;;;31.93;59.18;100841.81;5082741;27;69756;-38
2023/04/12 04:38:27;;;;;;;;;;;;;;;31.95;59.04;100831.56;5062161;27;67001;-39
2023/04/12 04:41:09;;;;;;;;;;;;;;;31.96;59.08;100830.53;5057487;27;69246;-40
2023/04/12 04:43:53;;;;;;;;;;;;;;;31.97;58.79;100821.31;5055581;28;66631;-38
2023/04/12 04:46:29;;;;;;;;;;;;;;;31.98;59.31;100831.13;5061747;28;70284;-40
2023/04/12 04:49:01;;;;;;;;;;;;;;;31.99;58.88;100816.50;5064002;27;66033;-38
2023/04/12 04:51:31;;;;;;;;;;;;;;;32.00;58.96;100814.59;5065146;28;69232;-38
2023/04/12 04:54:04;;;;;;;;;;;;;;;32.01;59.06;100811.66;5057141;28;66665;-40
2023/04/12 04:56:38;;;;;;;;;;;;;;;32.02;59.30;100801.63;5060370;28;70085;-38
2023/04/12 04:59:09;;;;;;;;;;;;;;;32.02;58.99;100802.47;5059038;28;65651;-37
2023/04/12 05:01:41;;;;;;;;;;;;;;;32.03;59.04;100787.81;5053256;28;71374;-40
2023/04/12 05:04:12;;;;;;;;;;;;;;;32.05;59.07;100795.75;5060069;28;65780;-38
2023/04/12 05:06:42;;;;;;;;;;;;;;;32.08;58.91;100775.47;5052044;28;69934;-39
2023/04/12 05:09:15;;;;;;;;;;;;;;;32.10;58.84;100776.06;5057156;28;66810;-39
2023/04/12 05:11:50;;;;;;;;;;;;;;;32.13;59.00;100764.75;5049196;28;69888;-39
2023/04/12 05:14:21;;;;;;;;;;;;;;;32.13;58.75;100767.47;5074275;27;67223;-39
2023/04/12 05:16:52;;;;;;;;;;;;;;;32.16;58.64;100758.84;5058879;28;71122;-39
2023/04/12 05:19:23;;;;;;;;;;;;;;;32.20;58.84;100754.59;5051231;28;66523;-38
2023/04/12 05:21:54;;;;;;;;;;;;;;;32.22;58.90;100749.78;5049648;28;70028;-37
2023/04/12 05:24:24;;;;;;;;;;;;;;;32.24;58.63;100744.97;5059292;28;66345;-38
2023/04/12 05:26:57;;;;;;;;;;;;;;;32.27;58.47;100747.22;5038758;28;68978;-39
2023/04/12 05:29:27;;;;;;;;;;;;;;;32.28;58.41;100729.84;5049374;28;66127;-40
2023/04/12 05:31:58;;;;;;;;;;;;;;;32.31;58.43;100726.66;5074446;27;70225;-39
2023/04/12 05:34:29;;;;;;;;;;;;;;;32.34;58.68;100725.38;5038511;28;66661;-38
2023/04/12 05:36:59;;;;;;;;;;;;;;;32.36;58.38;100715.13;5074592;27;70273;-38
2023/04/12 05:39:35;;;;;;;;;;;;;;;32.38;58.51;100713.81;5040227;28;65783;-39
2023/04/12 05:42:08;;;;;;;;;;;;;;;32.40;58.25;100698.13;5047574;28;70796;-38
2023/04/12 05:44:39;;;;;;;;;;;;;;;32.44;58.23;100693.88;5058258;27;67035;-37
2023/04/12 05:47:12;;;;;;;;;;;;;;;32.46;58.08;100683.63;5050911;28;70336;-38
2023/04/12 05:49:43;;;;;;;;;;;;;;;32.48;57.87;100676.09;5052580;28;65999;-39
2023/04/12 05:52:13;;;;;;;;;;;;;;;32.52;58.19;100678.34;5068177;27;69435;-39
2023/04/12 05:54:43;;;;;;;;;;;;;;;32.54;58.00;100673.47;5090844;27;66083;-39
2023/04/12 05:57:18;;;;;;;;;;;;;;;32.54;57.95;100665.31;5057381;28;70360;-39
2023/04/12 05:59:49;;;;;;;;;;;;;;;32.57;57.98;100656.69;5058766;28;66303;-40
2023/04/12 06:02:19;;;;;;;;;;;;;;;32.59;57.95;100654.59;5050674;28;69573;-39
2023/04/12 06:04:51;;;;;;;;;;;;;;;32.60;57.87;100645.41;5057385;28;66991;-39
2023/04/12 06:07:21;;;;;;;;;;;;;;;32.63;57.82;100644.91;5055612;28;70645;-38
2023/04/12 06:09:52;;;;;;;;;;;;;;;32.65;57.69;100648.19;5055831;28;66574;-38
2023/04/12 06:12:23;;;;;;;;;;;;;;;32.67;57.73;100640.63;5058175;28;69233;-38
2023/04/12 06:14:54;;;;;;;;;;;;;;;32.69;57.74;100647.50;5089266;27;66923;-38
2023/04/12 06:17:26;;;;;;;;;;;;;;;32.70;57.60;100634.72;5055174;28;69251;-38
2023/04/12 06:19:57;;;;;;;;;;;;;;;32.73;57.39;100628.81;5060164;28;67190;-38
2023/04/12 06:22:27;;;;;;;;;;;;;;;32.75;57.53;100621.25;5087208;27;69552;-38
2023/04/12 06:24:58;;;;;;;;;;;;;;;32.77;57.49;100618.31;5060687;28;66235;-39
2023/04/12 06:27:28;;;;;;;;;;;;;;;32.78;57.57;100614.53;5058955;27;70456;-40
2023/04/12 06:29:58;;;;;;;;;;;;;;;32.80;57.17;100607.78;5057511;28;66520;-39
2023/04/12 06:32:32;;;;;;;;;;;;;;;32.82;57.37;100599.38;5087062;27;70839;-38
2023/04/12 06:35:03;;;;;;;;;;;;;;;32.84;57.26;100600.81;5057159;28;66301;-38
2023/04/12 06:37:33;;;;;;;;;;;;;;;32.88;57.44;100598.44;5056870;28;71726;-39
2023/04/12 06:40:04;;;;;;;;;;;;;;;32.88;57.06;100591.13;5057324;27;67195;-39
2023/04/12 06:42:35;;;;;;;;;;;;;;;32.91;57.14;100584.38;5075362;27;69959;-39
2023/04/12 06:45:06;;;;;;;;;;;;;;;32.92;57.12;100577.88;5055330;28;66311;-40
2023/04/12 06:47:36;;;;;;;;;;;;;;;32.94;56.88;100575.75;5058321;27;70240;-41
2023/04/12 06:50:07;;;;;;;;;;;;;;;32.97;56.99;100569.00;5039390;28;66386;-38
2023/04/12 06:52:37;;;;;;;;;;;;;;;33.00;56.99;100563.13;5057591;28;68532;-39
2023/04/12 06:55:08;;;;;;;;;;;;;;;33.03;56.79;100557.19;5078495;27;66919;-39
2023/04/12 06:57:38;;;;;;;;;;;;;;;33.05;56.75;100557.78;5040823;28;70323;-40
2023/04/12 07:00:08;;;;;;;;;;;;;;;33.07;56.47;100552.91;5075090;27;65356;-38
2023/04/12 07:02:39;;;;;;;;;;;;;;;33.10;56.69;100547.00;5077250;28;70787;-38
2023/04/12 07:05:09;;;;;;;;;;;;;;;33.13;56.63;100546.53;5077191;27;66831;-38
2023/04/12 07:07:40;;;;;;;;;;;;;;;33.16;56.39;100540.59;5075322;27;70057;-38
2023/04/12 07:10:10;;;;;;;;;;;;;;;33.19;56.41;100545.53;5061001;28;66862;-39
2023/04/12 07:12:41;;;;;;;;;;;;;;;33.22;56.45;100531.47;5077693;27;69790;-39
2023/04/12 07:15:11;;;;;;;;;;;;;;;33.24;56.44;100526.59;5073186;27;66848;-39
2023/04/12 07:17:42;;;;;;;;;;;;;;;33.27;56.15;100522.59;5077742;27;70690;-39
2023/04/12 07:20:12;;;;;;;;;;;;;;;33.30;56.35;100530.25;5083797;27;65550;-38
2023/04/12 07:22:42;;;;;;;;;;;;;;;33.32;56.22;100520.78;5077006;27;70181;-38
2023/04/12 07:25:12;;;;;;;;;;;;;;;33.34;56.32;100515.88;5079280;28;66260;-39
2023/04/12 07:27:43;;;;;;;;;;;;;;;33.37;56.18;100509.97;5074972;27;69550;-39
2023/04/12 07:30:13;;;;;;;;;;;;;;;33.40;56.01;100500.50;5055218;28;66328;-39
2023/04/12 07:32:44;;;;;;;;;;;;;;;33.43;55.92;100502.72;5078604;27;70097;-39
2023/04/12 07:35:15;;;;;;;;;;;;;;;33.48;56.00;100488.38;5076551;27;66699;-39
2023/04/12 07:37:46;;;;;;;;;;;;;;;33.50;55.64;100492.50;5075138;27;70128;-38
2023/04/12 07:40:16;;;;;;;;;;;;;;;33.53;55.86;100491.22;5076355;27;65501;-39
2023/04/12 07:42:46;;;;;;;;;;;;;;;33.56;55.75;100490.72;5077478;27;70296;-39
2023/04/12 07:45:16;;;;;;;;;;;;;;;33.57;55.54;100486.91;5072341;27;66335;-38
2023/04/12 07:47:47;;;;;;;;;;;;;;;33.59;55.57;100480.16;5072232;27;70246;-38
2023/04/12 07:50:17;;;;;;;;;;;;;;;33.63;55.41;100482.38;5077632;27;66554;-39
2023/04/12 07:52:48;;;;;;;;;;;;;;;33.63;55.26;100480.50;5070169;27;69982;-38
2023/04/12 07:55:18;;;;;;;;;;;;;;;33.66;55.53;100480.00;5071691;27;65137;-39
2023/04/12 07:57:48;;;;;;;;;;;;;;;33.68;55.49;100477.84;5071796;27;69076;-39
2023/04/12 08:00:18;;;;;;;;;;;;;;;33.70;55.53;100478.44;5077112;27;65754;-39
2023/04/12 08:02:48;;;;;;;;;;;;;;;33.72;55.44;100481.72;5074386;27;69532;-41
2023/04/12 08:05:19;;;;;;;;;;;;;;;33.74;55.33;100481.47;5078643;27;66336;-39
2023/04/12 08:07:49;;;;;;;;;;;;;;;33.76;55.31;100474.69;5077966;27;70410;-39
2023/04/12 08:10:19;;;;;;;;;;;;;;;33.77;55.07;100470.94;5074525;27;66846;-39
2023/04/12 08:12:49;;;;;;;;;;;;;;;33.80;55.12;100470.44;5078663;27;69124;-38
2023/04/12 08:15:20;;;;;;;;;;;;;;;33.83;55.06;100469.09;5077173;27;66009;-40
2023/04/12 08:17:50;;;;;;;;;;;;;;;33.85;55.22;100461.53;5059170;27;69750;-39
2023/04/12 08:20:20;;;;;;;;;;;;;;;33.87;55.11;100464.78;5079173;27;65505;-38
2023/04/12 08:22:51;;;;;;;;;;;;;;;33.90;54.89;100460.75;5080497;27;69889;-39
2023/04/12 08:25:21;;;;;;;;;;;;;;;33.91;55.22;100456.97;5082185;27;66497;-39
2023/04/12 08:27:51;;;;;;;;;;;;;;;33.92;55.10;100459.44;5080807;27;70290;-38
2023/04/12 08:30:25;;;;;;;;;;;;;;;33.94;54.79;100457.28;5064837;28;66811;-48
2023/04/12 08:32:55;;;;;;;;;;;;;;;33.95;54.97;100455.38;5056132;27;69800;-38
2023/04/12 08:35:26;;;;;;;;;;;;;;;33.97;54.90;100443.19;5080080;27;66179;-39
2023/04/12 08:37:56;;;;;;;;;;;;;;;33.99;55.06;100445.63;5080029;27;70509;-39
2023/04/12 08:40:27;;;;;;;;;;;;;;;33.98;54.85;100444.81;5079022;27;66639;-39
2023/04/12 08:43:00;;;;;;;;;;;;;;;33.98;54.95;100438.56;5078427;27;70142;-38
2023/04/12 08:45:31;;;;;;;;;;;;;;;33.99;54.99;100435.59;5083743;27;67072;-39
2023/04/12 08:48:02;;;;;;;;;;;;;;;34.00;55.14;100425.53;5077067;27;70013;-39
2023/04/12 08:50:33;;;;;;;;;;;;;;;34.01;55.05;100438.03;5074193;27;66699;-39
2023/04/12 08:53:04;;;;;;;;;;;;;;;34.02;54.92;100437.00;5079260;27;70487;-39
2023/04/12 08:55:34;;;;;;;;;;;;;;;34.04;55.08;100437.53;5081830;27;65861;-39
2023/04/12 08:58:06;;;;;;;;;;;;;;;34.07;54.67;100439.78;5056945;27;70847;-38
2023/04/12 09:00:37;;;;;;;;;;;;;;;34.08;54.62;100438.72;5079331;27;66768;-40
2023/04/12 09:03:09;;;;;;;;;;;;;;;34.08;54.82;100438.72;5080116;27;70689;-39
2023/04/12 09:05:40;;;;;;;;;;;;;;;34.10;54.65;100442.03;5081244;27;66714;-39
2023/04/12 09:08:11;;;;;;;;;;;;;;;34.12;54.63;100450.72;5080102;27;70244;-39
2023/04/12 09:10:41;;;;;;;;;;;;;;;34.13;55.18;100454.28;5080032;27;66037;-38
2023/04/12 09:13:11;;;;;;;;;;;;;;;34.13;54.88;100448.84;5079824;27;70309;-39
2023/04/12 09:15:48;;;;;;;;;;;;;;;34.13;55.21;100446.97;5081666;27;65664;-38
2023/04/12 09:18:19;;;;;;;;;;;;;;;34.12;54.91;100450.72;5079988;27;69708;-38
2023/04/12 09:20:50;;;;;;;;;;;;;;;34.13;54.98;100455.13;5079482;27;65577;-38
2023/04/12 09:23:22;;;;;;;;;;;;;;;34.14;54.92;100458.66;5079738;27;70720;-40
2023/04/12 09:25:53;;;;;;;;;;;;;;;34.15;55.21;100457.56;5077829;27;66874;-40
2023/04/12 09:28:24;;;;;;;;;;;;;;;34.12;55.18;100456.19;5079247;27;70237;-38
2023/04/12 09:30:56;;;;;;;;;;;;;;;34.13;55.34;100446.97;5078197;27;66426;-39
2023/04/12 09:33:36;;;;;;;;;;;;;;;34.13;55.38;100454.28;5079283;27;69861;-39
2023/04/12 09:36:13;;;;;;;;;;;;;;;34.14;55.44;100448.59;5071513;27;67250;-39
2023/04/12 09:38:57;;;;;;;;;;;;;;;34.13;55.98;100457.84;5078357;27;69044;-38
2023/04/12 09:41:30;;;;;;;;;;;;;;;34.10;55.98;100447.47;5078273;27;66022;-39
2023/04/12 09:44:02;;;;;;;;;;;;;;;34.09;55.49;100439.53;5072867;27;70318;-39
2023/04/12 09:46:49;;;;;;;;;;;;;;;34.08;55.89;100446.88;5096513;27;66073;-41
2023/04/12 09:49:34;;;;;;;;;;;;;;;34.10;56.05;100443.91;5075931;28;70471;-39
2023/04/12 09:52:09;;;;;;;;;;;;;;;34.11;56.23;100449.09;5093602;27;66154;-44
2023/04/12 09:54:42;;;;;;;;;;;;;;;34.10;56.10;100452.06;5077661;27;70394;-39
2023/04/12 09:57:12;;;;;;;;;;;;;;;34.10;56.36;100463.78;5080393;27;65367;-39
2023/04/12 09:59:43;;;;;;;;;;;;;;;34.10;56.40;100463.78;5044423;28;69897;-39
2023/04/12 10:02:17;;;;;;;;;;;;;;;34.09;56.23;100467.56;5078253;27;65773;-38
2023/04/12 10:04:48;;;;;;;;;;;;;;;34.08;56.52;100476.81;5077960;27;69083;-39
2023/04/12 10:07:19;;;;;;;;;;;;;;;34.08;56.52;100479.53;5091915;27;64888;-38
2023/04/12 10:09:49;;;;;;;;;;;;;;;34.06;56.75;100487.13;5079013;27;69927;-39
2023/04/12 10:12:20;;;;;;;;;;;;;;;34.05;57.01;100498.28;5062030;28;65928;-38
2023/04/12 10:14:51;;;;;;;;;;;;;;;34.03;56.61;100495.78;5080109;27;70736;-38
2023/04/12 10:17:21;;;;;;;;;;;;;;;34.04;57.18;100502.84;5078967;27;66091;-39
2023/04/12 10:19:52;;;;;;;;;;;;;;;34.01;57.39;100508.78;5077967;27;70064;-39
2023/04/12 10:22:22;;;;;;;;;;;;;;;34.00;57.34;100520.78;5079499;27;66483;-39
2023/04/12 10:24:53;;;;;;;;;;;;;;;33.76;59.47;100526.38;5074325;27;69908;-38
2023/04/12 10:27:28;;;;;;;;;;;;;;;33.64;61.12;100535.72;5078362;27;65347;-40
2023/04/12 10:30:16;;;;;;;;;;;;;;;33.55;61.71;100532.59;5075157;27;70510;-40
2023/04/12 10:32:47;;;;;;;;;;;;;;;33.50;62.28;100535.19;5076920;28;66591;-39
2023/04/12 10:35:18;;;;;;;;;;;;;;;33.42;62.77;100543.75;5077753;27;70022;-39
2023/04/12 10:38:00;;;;;;;;;;;;;;;33.38;63.14;100548.88;5077910;27;66006;-40
2023/04/12 10:40:31;;;;;;;;;;;;;;;33.36;63.54;100546.38;5094863;27;69788;-45
2023/04/12 10:43:20;;;;;;;;;;;;;;;33.35;63.54;100555.63;5075941;27;67817;-42
2023/04/12 10:45:50;;;;;;;;;;;;;;;33.32;63.85;100556.13;5089948;27;69769;-40
2023/04/12 10:48:31;;;;;;;;;;;;;;;33.32;64.58;100560.69;5076608;28;66376;-39
2023/04/12 10:51:26;;;;;;;;;;;;;;;33.29;64.70;100556.59;5074519;27;69697;-39
2023/04/12 10:54:08;;;;;;;;;;;;;;;33.28;64.68;100560.38;5089227;27;64411;-40
2023/04/12 10:56:40;;;;;;;;;;;;;;;33.25;64.88;100555.44;5078570;27;70457;-39
2023/04/12 10:59:16;;;;;;;;;;;;;;;33.26;65.11;100557.06;5057592;27;66148;-40
2023/04/12 11:02:05;;;;;;;;;;;;;;;33.25;65.89;100557.31;5040497;28;69170;-39
2023/04/12 11:04:36;;;;;;;;;;;;;;;33.25;66.00;100554.59;5074295;27;66468;-40
2023/04/12 11:07:16;;;;;;;;;;;;;;;33.23;66.15;100552.13;5077522;27;69199;-45
2023/04/12 11:09:56;;;;;;;;;;;;;;;33.32;65.28;100545.25;5060113;28;66337;-39
2023/04/12 11:12:34;;;;;;;;;;;;;;;33.42;64.41;100546.47;5059566;28;69739;-39
2023/04/12 11:15:05;;;;;;;;;;;;;;;33.49;64.21;100566.16;5075340;27;66065;-40
2023/04/12 11:17:52;;;;;;;;;;;;;;;33.54;63.84;100563.56;5085976;27;70576;-39
2023/04/12 11:20:25;;;;;;;;;;;;;;;33.59;63.59;100566.38;5077432;27;67059;-39
2023/04/12 11:22:57;;;;;;;;;;;;;;;33.61;63.19;100575.13;5060203;27;70667;-39
2023/04/12 11:25:28;;;;;;;;;;;;;;;33.64;63.36;100580.06;5059277;28;65073;-41
2023/04/12 11:28:00;;;;;;;;;;;;;;;33.67;63.46;100582.28;5086973;27;70199;-40
2023/04/12 11:30:34;;;;;;;;;;;;;;;33.67;63.21;100579.56;5090656;27;66644;-39
2023/04/12 11:33:04;;;;;;;;;;;;;;;33.69;63.07;100599.19;5076490;27;70351;-39
2023/04/12 11:35:35;;;;;;;;;;;;;;;33.68;63.63;100600.25;5079535;27;66167;-40
2023/04/12 11:38:06;;;;;;;;;;;;;;;33.69;63.32;100604.63;5075524;27;69809;-39
2023/04/12 11:40:36;;;;;;;;;;;;;;;33.69;63.45;100612.78;5058557;28;66282;-38
2023/04/12 11:43:06;;;;;;;;;;;;;;;33.70;63.62;100616.34;5059995;28;69972;-39
2023/04/12 11:45:36;;;;;;;;;;;;;;;33.68;63.80;100619.28;5070682;27;66653;-50
2023/04/12 11:48:08;;;;;;;;;;;;;;;33.68;64.02;100626.63;5077076;27;69906;-40
2023/04/12 11:50:39;;;;;;;;;;;;;;;33.68;64.09;100638.31;5077232;27;66448;-39
2023/04/12 11:53:12;;;;;;;;;;;;;;;33.68;63.73;100637.50;5077129;27;69142;-41
2023/04/12 11:55:53;;;;;;;;;;;;;;;33.67;63.77;100647.56;5080890;27;66769;-39
2023/04/12 11:58:26;;;;;;;;;;;;;;;33.65;64.10;100651.59;5078845;27;68893;-39
2023/04/12 12:00:57;;;;;;;;;;;;;;;33.64;63.97;100652.69;5061498;28;65857;-39
2023/04/12 12:03:27;;;;;;;;;;;;;;;33.59;65.07;100658.84;5083390;27;70161;-40
2023/04/12 12:05:58;;;;;;;;;;;;;;;33.45;65.80;100662.91;5080884;27;66155;-40
2023/04/12 12:08:29;;;;;;;;;;;;;;;33.33;67.04;100682.81;5075683;27;69955;-38
2023/04/12 12:10:59;;;;;;;;;;;;;;;33.27;67.50;100682.97;5078447;27;66695;-52
2023/04/12 12:13:49;;;;;;;;;;;;;;;33.20;67.94;100698.56;5077798;27;70656;-40
2023/04/12 12:16:27;;;;;;;;;;;;;;;33.11;68.46;100700.84;5081131;27;66531;-40
2023/04/12 12:18:58;;;;;;;;;;;;;;;33.07;69.03;100710.53;5062434;27;69822;-41
2023/04/12 12:21:28;;;;;;;;;;;;;;;33.04;69.24;100700.97;5081903;27;67390;-39
2023/04/12 12:23:58;;;;;;;;;;;;;;;33.00;69.27;100704.41;5064303;27;70129;-41
2023/04/12 12:26:29;;;;;;;;;;;;;;;32.97;68.99;100704.84;5080193;27;65231;-41
2023/04/12 12:28:59;;;;;;;;;;;;;;;32.93;69.25;100710.78;5080497;27;69158;-40
2023/04/12 12:31:29;;;;;;;;;;;;;;;32.93;69.69;100712.63;5080667;27;66642;-41
2023/04/12 12:34:00;;;;;;;;;;;;;;;32.90;69.95;100713.97;5072584;27;70063;-40
2023/04/12 12:36:37;;;;;;;;;;;;;;;32.88;69.95;100713.38;5077354;27;66979;-43
2023/04/12 12:39:09;;;;;;;;;;;;;;;32.90;70.10;100719.41;5080908;27;69480;-40
2023/04/12 12:41:40;;;;;;;;;;;;;;;32.69;70.25;100706.41;5078379;27;67035;-40
2023/04/12 12:44:11;;;;;;;;;;;;;;;32.84;69.75;100714.91;5080901;27;70141;-41
2023/04/12 12:46:41;;;;;;;;;;;;;;;32.85;69.65;100713.03;5077996;27;66562;-39
2023/04/12 12:49:28;;;;;;;;;;;;;;;32.75;69.18;100708.19;5064691;28;70704;-41
2023/04/12 12:51:59;;;;;;;;;;;;;;;32.57;66.52;100727.31;5081354;27;66603;-41
2023/04/12 12:54:29;;;;;;;;;;;;;;;32.35;63.75;100725.16;5060876;28;70313;-41
2023/04/12 12:57:09;;;;;;;;;;;;;;;32.17;61.37;100733.38;5066711;27;66776;-41
2023/04/12 12:59:40;;;;;;;;;;;;;;;31.98;59.28;100733.47;5081312;28;69599;-43
2023/04/12 13:02:10;;;;;;;;;;;;;;;31.86;58.00;100732.53;5081663;27;66137;-40
2023/04/12 13:04:40;;;;;;;;;;;;;;;31.71;57.67;100732.16;5063855;27;70377;-41